Welcome to our new website - Welkom op onze vernieuwde website - Bienvenue sur notre nouveau site web - Willkommen auf unserer neuen Website
Check our progress frequently. Prüfen Sie unsere Fortschritte regelmäßig. Consultez notre progression fréquemment. Komt u straks nog eens terug


Bezoek onze andere website:

Template documentation
and downloads

And another site



METAR rapporten vliegvelden

   
EBBR - Brussels International Airport, Belgium
Afstand tot: W 14 km
Gewijzigd: Aug 3 2020 3:50 pm
Helder  
Helder  
   Wind: NNW 28 km/h
Wind: NNW 28 km/h
Temperatuur: 20°C
Dauwpunt: 10°C
Vochtigheid: 53%
Barometer: 1013 hPa
Zicht: meer dan 10 km
Bewolking: Helder
EBBR 031350Z 34015KT 310V050 CAVOK 20/10 Q1013 NOSIG
EBBE - Beauvechain (Bevekom), Belgium
Afstand tot: ZZO 17 km
Gewijzigd: Aug 3 2020 3:55 pm
Grotendeels bewolkt  
Grotendeels bewolkt  
   Wind: NW 11 km/h
Wind: NW 11 km/h
Temperatuur: 21°C
Dauwpunt: 9°C
Vochtigheid: 46%
Barometer: 1012 hPa
Bewolking: Grotendeels bewolkt
Zicht: meer dan 10 km
Bewolking: Licht bewolkt 1524 m,
Grotendeels bewolkt 6096 m
EBBE 031355Z 31006KT 9999 FEW050 BKN200 21/09 Q1012 BLU BLU
EBDT - Schaffen, Belgium
Afstand tot: ONO 29 km
Gewijzigd: Aug 3 2020 3:55 pm
Licht bewolkt  
Licht bewolkt  
   Wind: NNW 11 km/h
Wind: NNW 11 km/h
Temperatuur: 22°C
Dauwpunt: 6°C
Vochtigheid: 36%
Barometer: 1012 hPa
Bewolking: Licht bewolkt
Zicht: meer dan 10 km
Bewolking: Licht bewolkt 1828.8 m
EBDT 031355Z AUTO 33006KT 9999 FEW060/// 22/06 Q1012 BLU
EBAW - Antwerp/Deurne, Belgium
Afstand tot: NNW 38 km
Gewijzigd: Aug 3 2020 3:50 pm
Nearby Showers, Grotendeels bewolkt  
Nearby Showers, Grotendeels bewolkt  
   Wind: NNW 22 km/h
Wind: NNW 22 km/h
Temperatuur: 18°C
Dauwpunt: 13°C
Vochtigheid: 73%
Barometer: 1014 hPa
Bewolking: Grotendeels bewolkt
Zicht: meer dan 10 km
Bewolking: Licht bewolkt 670.6 m,
Grotendeels bewolkt 1493.5 m
EBAW 031350Z 34012KT 300V010 9999 VCSH FEW022TCU BKN049 18/13 Q1014 TEMPO 3000 TSRA
EBCI - Charleroi/Gosselies, Belgium
Afstand tot: ZZW 51 km
Gewijzigd: Aug 3 2020 3:50 pm
Licht bewolkt  
Licht bewolkt  
   Wind: NNW 11 km/h
Wind: NNW 11 km/h
Temperatuur: 23°C
Dauwpunt: 7°C
Vochtigheid: 36%
Barometer: 1013 hPa
Bewolking: Licht bewolkt
Zicht: meer dan 10 km
Bewolking: Licht bewolkt 1066.8 m
EBCI 031350Z 33006KT 270V020 9999 FEW035 23/07 Q1013 NOSIG
EBLG - Bierset/Liege, Belgium
Afstand tot: OZO 60 km
Gewijzigd: Aug 3 2020 3:50 pm
Gedeeltelijk bewolkt  
Gedeeltelijk bewolkt  
   Wind: ONO 6 km/h
Wind: ONO 6 km/h
Temperatuur: 21°C
Dauwpunt: 8°C
Vochtigheid: 43%
Barometer: 1013 hPa
Bewolking: Gedeeltelijk bewolkt
Zicht: meer dan 10 km
Bewolking: Gedeeltelijk bewolkt 1402.1 m
EBLG 031350Z 06003KT 350V130 9999 SCT046 21/08 Q1013 NOSIG

Script ontwikkeld door  Saratoga-weather.org Aangepast voor de template door  Weerstation Leuven

U vindt ons ook hier:

Het Weer Aktueel

UK Metoffice

European Weather Network

WeatherCloud

Weather Underground

AWEKAS

Apparatuur in gebruik:

Weerstation
Davis VP2

Weerprogramma
Meteobridge

Weercomputer
Tl-mr3020

Webleverancier
Robohost

Davis VP2

Meteobridge

Tl-mr3020

Robohost